sensor_id;sensor_type;location;lat;lon;timestamp;P1;durP1;ratioP1;P2;durP2;ratioP2
18286;SDS011;9269;50.838;12.094;2023-06-04T00:00:22;3.90;;;3.60;;
18286;SDS011;9269;50.838;12.094;2023-06-04T00:02:55;5.60;;;3.50;;
18286;SDS011;9269;50.838;12.094;2023-06-04T00:05:32;4.97;;;4.00;;
18286;SDS011;9269;50.838;12.094;2023-06-04T00:08:03;4.40;;;3.83;;
18286;SDS011;9269;50.838;12.094;2023-06-04T00:10:39;4.93;;;3.83;;
18286;SDS011;9269;50.838;12.094;2023-06-04T00:13:18;4.80;;;4.23;;
18286;SDS011;9269;50.838;12.094;2023-06-04T00:15:51;5.90;;;3.67;;
18286;SDS011;9269;50.838;12.094;2023-06-04T00:18:31;4.20;;;3.60;;
18286;SDS011;9269;50.838;12.094;2023-06-04T00:21:04;6.70;;;4.30;;
18286;SDS011;9269;50.838;12.094;2023-06-04T00:23:42;5.00;;;4.03;;
18286;SDS011;9269;50.838;12.094;2023-06-04T00:26:19;4.03;;;3.63;;
18286;SDS011;9269;50.838;12.094;2023-06-04T00:28:56;4.20;;;3.80;;
18286;SDS011;9269;50.838;12.094;2023-06-04T00:31:31;5.73;;;3.87;;
18286;SDS011;9269;50.838;12.094;2023-06-04T00:34:07;4.13;;;3.73;;
18286;SDS011;9269;50.838;12.094;2023-06-04T00:36:38;5.17;;;3.90;;
18286;SDS011;9269;50.838;12.094;2023-06-04T00:39:10;3.97;;;3.60;;
18286;SDS011;9269;50.838;12.094;2023-06-04T00:41:46;5.17;;;3.77;;
18286;SDS011;9269;50.838;12.094;2023-06-04T00:44:20;6.37;;;4.73;;
18286;SDS011;9269;50.838;12.094;2023-06-04T00:46:53;4.70;;;4.07;;
18286;SDS011;9269;50.838;12.094;2023-06-04T00:49:26;11.20;;;5.23;;
18286;SDS011;9269;50.838;12.094;2023-06-04T00:52:00;8.20;;;5.10;;
18286;SDS011;9269;50.838;12.094;2023-06-04T00:54:35;9.70;;;6.17;;
18286;SDS011;9269;50.838;12.094;2023-06-04T00:57:07;6.83;;;6.00;;
18286;SDS011;9269;50.838;12.094;2023-06-04T00:59:40;8.60;;;6.07;;
18286;SDS011;9269;50.838;12.094;2023-06-04T01:02:14;7.50;;;6.70;;
18286;SDS011;9269;50.838;12.094;2023-06-04T01:04:52;8.17;;;6.50;;
18286;SDS011;9269;50.838;12.094;2023-06-04T01:07:31;10.33;;;7.43;;
18286;SDS011;9269;50.838;12.094;2023-06-04T01:10:06;8.03;;;6.43;;
18286;SDS011;9269;50.838;12.094;2023-06-04T01:12:39;7.80;;;6.33;;
18286;SDS011;9269;50.838;12.094;2023-06-04T01:15:10;7.73;;;6.70;;
18286;SDS011;9269;50.838;12.094;2023-06-04T01:17:46;8.03;;;6.37;;
18286;SDS011;9269;50.838;12.094;2023-06-04T01:20:30;7.57;;;6.60;;
18286;SDS011;9269;50.838;12.094;2023-06-04T01:23:11;8.60;;;6.30;;
18286;SDS011;9269;50.838;12.094;2023-06-04T01:25:47;8.50;;;6.03;;
18286;SDS011;9269;50.838;12.094;2023-06-04T01:28:23;7.43;;;6.27;;
18286;SDS011;9269;50.838;12.094;2023-06-04T01:30:57;9.73;;;6.57;;
18286;SDS011;9269;50.838;12.094;2023-06-04T01:33:33;6.27;;;5.43;;
18286;SDS011;9269;50.838;12.094;2023-06-04T01:36:05;8.60;;;6.17;;
18286;SDS011;9269;50.838;12.094;2023-06-04T01:38:42;9.77;;;6.00;;
18286;SDS011;9269;50.838;12.094;2023-06-04T01:41:15;6.80;;;6.10;;
18286;SDS011;9269;50.838;12.094;2023-06-04T01:43:50;5.80;;;4.93;;
18286;SDS011;9269;50.838;12.094;2023-06-04T01:46:25;8.53;;;5.13;;
18286;SDS011;9269;50.838;12.094;2023-06-04T01:48:57;6.77;;;5.30;;
18286;SDS011;9269;50.838;12.094;2023-06-04T01:51:30;6.67;;;4.90;;
18286;SDS011;9269;50.838;12.094;2023-06-04T01:54:07;8.03;;;5.10;;
18286;SDS011;9269;50.838;12.094;2023-06-04T01:56:40;5.60;;;4.47;;
18286;SDS011;9269;50.838;12.094;2023-06-04T01:59:15;5.73;;;4.30;;
18286;SDS011;9269;50.838;12.094;2023-06-04T02:01:49;5.20;;;4.70;;
18286;SDS011;9269;50.838;12.094;2023-06-04T02:04:22;4.70;;;3.90;;
18286;SDS011;9269;50.838;12.094;2023-06-04T02:06:59;4.17;;;3.67;;
18286;SDS011;9269;50.838;12.094;2023-06-04T02:09:35;5.43;;;4.00;;
18286;SDS011;9269;50.838;12.094;2023-06-04T02:12:07;4.67;;;3.93;;
18286;SDS011;9269;50.838;12.094;2023-06-04T02:14:43;4.60;;;3.83;;
18286;SDS011;9269;50.838;12.094;2023-06-04T02:17:25;5.67;;;3.77;;
18286;SDS011;9269;50.838;12.094;2023-06-04T02:19:54;6.73;;;4.70;;
18286;SDS011;9269;50.838;12.094;2023-06-04T02:22:28;4.83;;;4.27;;
18286;SDS011;9269;50.838;12.094;2023-06-04T02:24:58;5.87;;;4.20;;
18286;SDS011;9269;50.838;12.094;2023-06-04T02:27:32;5.20;;;4.37;;
18286;SDS011;9269;50.838;12.094;2023-06-04T02:30:07;7.00;;;5.40;;
18286;SDS011;9269;50.838;12.094;2023-06-04T02:32:41;5.60;;;5.03;;
18286;SDS011;9269;50.838;12.094;2023-06-04T02:35:18;6.90;;;4.53;;
18286;SDS011;9269;50.838;12.094;2023-06-04T02:37:57;4.27;;;3.87;;
18286;SDS011;9269;50.838;12.094;2023-06-04T02:40:32;4.70;;;3.83;;
18286;SDS011;9269;50.838;12.094;2023-06-04T02:43:05;4.60;;;3.43;;
18286;SDS011;9269;50.838;12.094;2023-06-04T02:45:37;3.93;;;3.47;;
18286;SDS011;9269;50.838;12.094;2023-06-04T02:48:12;4.53;;;4.13;;
18286;SDS011;9269;50.838;12.094;2023-06-04T02:50:44;4.83;;;4.13;;
18286;SDS011;9269;50.838;12.094;2023-06-04T02:53:18;4.53;;;4.10;;
18286;SDS011;9269;50.838;12.094;2023-06-04T02:55:52;7.63;;;4.57;;
18286;SDS011;9269;50.838;12.094;2023-06-04T02:58:25;6.40;;;4.93;;
18286;SDS011;9269;50.838;12.094;2023-06-04T03:01:04;7.30;;;4.83;;
18286;SDS011;9269;50.838;12.094;2023-06-04T03:03:37;4.83;;;4.43;;
18286;SDS011;9269;50.838;12.094;2023-06-04T03:06:14;5.07;;;4.23;;
18286;SDS011;9269;50.838;12.094;2023-06-04T03:08:47;4.73;;;4.23;;
18286;SDS011;9269;50.838;12.094;2023-06-04T03:11:23;4.97;;;4.07;;
18286;SDS011;9269;50.838;12.094;2023-06-04T03:13:56;5.83;;;4.70;;
18286;SDS011;9269;50.838;12.094;2023-06-04T03:16:36;6.20;;;4.43;;
18286;SDS011;9269;50.838;12.094;2023-06-04T03:19:18;5.50;;;4.30;;
18286;SDS011;9269;50.838;12.094;2023-06-04T03:21:55;4.80;;;4.00;;
18286;SDS011;9269;50.838;12.094;2023-06-04T03:24:26;4.20;;;3.80;;
18286;SDS011;9269;50.838;12.094;2023-06-04T03:27:02;4.00;;;3.60;;
18286;SDS011;9269;50.838;12.094;2023-06-04T03:29:41;6.33;;;3.87;;
18286;SDS011;9269;50.838;12.094;2023-06-04T03:32:12;4.43;;;3.73;;
18286;SDS011;9269;50.838;12.094;2023-06-04T03:34:48;4.97;;;3.97;;
18286;SDS011;9269;50.838;12.094;2023-06-04T03:37:21;4.50;;;4.10;;
18286;SDS011;9269;50.838;12.094;2023-06-04T03:39:54;5.00;;;3.77;;
18286;SDS011;9269;50.838;12.094;2023-06-04T03:42:28;5.17;;;4.00;;
18286;SDS011;9269;50.838;12.094;2023-06-04T03:44:58;4.33;;;3.97;;
18286;SDS011;9269;50.838;12.094;2023-06-04T03:47:31;3.70;;;3.40;;
18286;SDS011;9269;50.838;12.094;2023-06-04T03:50:02;5.67;;;4.20;;
18286;SDS011;9269;50.838;12.094;2023-06-04T03:52:41;6.27;;;4.10;;
18286;SDS011;9269;50.838;12.094;2023-06-04T03:55:17;4.67;;;4.17;;
18286;SDS011;9269;50.838;12.094;2023-06-04T03:57:48;4.60;;;4.10;;
18286;SDS011;9269;50.838;12.094;2023-06-04T04:00:24;4.83;;;4.33;;
18286;SDS011;9269;50.838;12.094;2023-06-04T04:02:58;4.57;;;4.17;;
18286;SDS011;9269;50.838;12.094;2023-06-04T04:05:32;4.90;;;4.40;;
18286;SDS011;9269;50.838;12.094;2023-06-04T04:08:05;5.67;;;4.47;;
18286;SDS011;9269;50.838;12.094;2023-06-04T04:10:44;5.57;;;4.33;;
18286;SDS011;9269;50.838;12.094;2023-06-04T04:13:17;4.60;;;4.20;;
18286;SDS011;9269;50.838;12.094;2023-06-04T04:15:48;4.73;;;3.93;;
18286;SDS011;9269;50.838;12.094;2023-06-04T04:18:25;4.23;;;3.60;;
18286;SDS011;9269;50.838;12.094;2023-06-04T04:20:58;4.10;;;3.70;;
18286;SDS011;9269;50.838;12.094;2023-06-04T04:23:33;4.17;;;3.67;;
18286;SDS011;9269;50.838;12.094;2023-06-04T04:26:07;3.57;;;3.10;;
18286;SDS011;9269;50.838;12.094;2023-06-04T04:28:43;3.50;;;3.20;;
18286;SDS011;9269;50.838;12.094;2023-06-04T04:31:13;3.90;;;3.10;;
18286;SDS011;9269;50.838;12.094;2023-06-04T04:33:48;3.40;;;3.10;;
18286;SDS011;9269;50.838;12.094;2023-06-04T04:36:21;3.90;;;3.50;;
18286;SDS011;9269;50.838;12.094;2023-06-04T04:38:54;5.37;;;3.13;;
18286;SDS011;9269;50.838;12.094;2023-06-04T04:41:34;3.30;;;3.00;;
18286;SDS011;9269;50.838;12.094;2023-06-04T04:44:06;3.97;;;3.67;;
18286;SDS011;9269;50.838;12.094;2023-06-04T04:46:40;4.27;;;3.83;;
18286;SDS011;9269;50.838;12.094;2023-06-04T04:49:15;5.80;;;3.80;;
18286;SDS011;9269;50.838;12.094;2023-06-04T04:51:44;4.27;;;3.60;;
18286;SDS011;9269;50.838;12.094;2023-06-04T04:54:19;4.00;;;3.60;;
18286;SDS011;9269;50.838;12.094;2023-06-04T04:56:51;4.97;;;2.90;;
18286;SDS011;9269;50.838;12.094;2023-06-04T04:59:44;3.37;;;2.90;;
18286;SDS011;9269;50.838;12.094;2023-06-04T05:02:17;3.43;;;3.13;;
18286;SDS011;9269;50.838;12.094;2023-06-04T05:04:50;3.50;;;3.20;;
18286;SDS011;9269;50.838;12.094;2023-06-04T05:07:23;3.70;;;3.10;;
18286;SDS011;9269;50.838;12.094;2023-06-04T05:09:58;2.97;;;2.60;;
18286;SDS011;9269;50.838;12.094;2023-06-04T05:12:35;4.77;;;3.33;;
18286;SDS011;9269;50.838;12.094;2023-06-04T05:15:12;3.57;;;3.23;;
18286;SDS011;9269;50.838;12.094;2023-06-04T05:17:46;3.50;;;3.20;;
18286;SDS011;9269;50.838;12.094;2023-06-04T05:20:20;3.80;;;3.40;;
18286;SDS011;9269;50.838;12.094;2023-06-04T05:22:58;3.53;;;2.77;;
18286;SDS011;9269;50.838;12.094;2023-06-04T05:25:28;3.70;;;3.40;;
18286;SDS011;9269;50.838;12.094;2023-06-04T05:28:04;3.87;;;3.10;;
18286;SDS011;9269;50.838;12.094;2023-06-04T05:30:43;6.00;;;3.30;;
18286;SDS011;9269;50.838;12.094;2023-06-04T05:33:19;5.30;;;4.00;;
18286;SDS011;9269;50.838;12.094;2023-06-04T05:35:53;3.87;;;3.50;;
18286;SDS011;9269;50.838;12.094;2023-06-04T05:38:28;4.80;;;4.00;;
18286;SDS011;9269;50.838;12.094;2023-06-04T05:41:01;4.57;;;4.17;;
18286;SDS011;9269;50.838;12.094;2023-06-04T05:43:35;4.87;;;3.87;;
18286;SDS011;9269;50.838;12.094;2023-06-04T05:46:16;3.93;;;3.40;;
18286;SDS011;9269;50.838;12.094;2023-06-04T05:48:48;6.77;;;4.17;;
18286;SDS011;9269;50.838;12.094;2023-06-04T05:51:19;4.30;;;3.77;;
18286;SDS011;9269;50.838;12.094;2023-06-04T05:53:58;4.17;;;3.60;;
18286;SDS011;9269;50.838;12.094;2023-06-04T05:56:29;3.73;;;3.30;;
18286;SDS011;9269;50.838;12.094;2023-06-04T05:59:06;4.10;;;3.50;;
18286;SDS011;9269;50.838;12.094;2023-06-04T06:01:42;3.60;;;3.27;;
18286;SDS011;9269;50.838;12.094;2023-06-04T06:04:16;4.67;;;3.20;;
18286;SDS011;9269;50.838;12.094;2023-06-04T06:06:57;4.53;;;3.77;;
18286;SDS011;9269;50.838;12.094;2023-06-04T06:09:45;4.00;;;3.23;;
18286;SDS011;9269;50.838;12.094;2023-06-04T06:12:18;4.80;;;3.30;;
18286;SDS011;9269;50.838;12.094;2023-06-04T06:14:54;3.87;;;3.47;;
18286;SDS011;9269;50.838;12.094;2023-06-04T06:17:31;5.23;;;3.57;;
18286;SDS011;9269;50.838;12.094;2023-06-04T06:20:06;4.53;;;3.30;;
18286;SDS011;9269;50.838;12.094;2023-06-04T06:22:38;3.73;;;3.43;;
18286;SDS011;9269;50.838;12.094;2023-06-04T06:25:19;4.70;;;3.83;;
18286;SDS011;9269;50.838;12.094;2023-06-04T06:27:54;4.33;;;3.60;;
18286;SDS011;9269;50.838;12.094;2023-06-04T06:30:32;5.67;;;3.50;;
18286;SDS011;9269;50.838;12.094;2023-06-04T06:33:10;3.53;;;3.00;;
18286;SDS011;9269;50.838;12.094;2023-06-04T06:35:42;3.30;;;3.00;;
18286;SDS011;9269;50.838;12.094;2023-06-04T06:38:17;4.93;;;3.50;;
18286;SDS011;9269;50.838;12.094;2023-06-04T06:40:57;5.73;;;3.63;;
18286;SDS011;9269;50.838;12.094;2023-06-04T06:43:38;4.43;;;3.40;;
18286;SDS011;9269;50.838;12.094;2023-06-04T06:46:10;4.03;;;3.50;;
18286;SDS011;9269;50.838;12.094;2023-06-04T06:48:41;5.87;;;3.70;;
18286;SDS011;9269;50.838;12.094;2023-06-04T06:51:21;3.87;;;3.47;;
18286;SDS011;9269;50.838;12.094;2023-06-04T06:53:56;4.20;;;3.80;;
18286;SDS011;9269;50.838;12.094;2023-06-04T06:56:30;3.50;;;3.20;;
18286;SDS011;9269;50.838;12.094;2023-06-04T06:59:06;4.03;;;3.60;;
18286;SDS011;9269;50.838;12.094;2023-06-04T07:01:38;3.77;;;3.27;;
18286;SDS011;9269;50.838;12.094;2023-06-04T07:04:13;4.33;;;3.87;;
18286;SDS011;9269;50.838;12.094;2023-06-04T07:06:45;3.33;;;3.03;;
18286;SDS011;9269;50.838;12.094;2023-06-04T07:09:24;4.47;;;3.20;;
18286;SDS011;9269;50.838;12.094;2023-06-04T07:12:02;4.37;;;3.40;;
18286;SDS011;9269;50.838;12.094;2023-06-04T07:14:40;4.47;;;3.10;;
18286;SDS011;9269;50.838;12.094;2023-06-04T07:17:24;3.70;;;3.30;;
18286;SDS011;9269;50.838;12.094;2023-06-04T07:20:02;4.00;;;3.23;;
18286;SDS011;9269;50.838;12.094;2023-06-04T07:22:41;3.63;;;3.33;;
18286;SDS011;9269;50.838;12.094;2023-06-04T07:25:16;3.90;;;3.10;;
18286;SDS011;9269;50.838;12.094;2023-06-04T07:27:50;3.07;;;2.77;;
18286;SDS011;9269;50.838;12.094;2023-06-04T07:30:24;4.13;;;2.87;;
18286;SDS011;9269;50.838;12.094;2023-06-04T07:32:59;3.20;;;2.90;;
18286;SDS011;9269;50.838;12.094;2023-06-04T07:35:34;3.37;;;2.77;;
18286;SDS011;9269;50.838;12.094;2023-06-04T07:38:07;4.63;;;2.93;;
18286;SDS011;9269;50.838;12.094;2023-06-04T07:40:46;3.70;;;2.60;;
18286;SDS011;9269;50.838;12.094;2023-06-04T07:43:16;3.23;;;2.60;;
18286;SDS011;9269;50.838;12.094;2023-06-04T07:45:55;2.87;;;2.20;;
18286;SDS011;9269;50.838;12.094;2023-06-04T07:48:28;2.30;;;2.00;;
18286;SDS011;9269;50.838;12.094;2023-06-04T07:51:07;2.47;;;2.20;;
18286;SDS011;9269;50.838;12.094;2023-06-04T07:53:41;3.70;;;2.43;;
18286;SDS011;9269;50.838;12.094;2023-06-04T07:56:19;2.47;;;1.80;;
18286;SDS011;9269;50.838;12.094;2023-06-04T07:58:50;2.57;;;1.80;;
18286;SDS011;9269;50.838;12.094;2023-06-04T08:01:25;2.23;;;2.03;;
18286;SDS011;9269;50.838;12.094;2023-06-04T08:04:02;3.47;;;2.30;;
18286;SDS011;9269;50.838;12.094;2023-06-04T08:06:36;2.20;;;1.90;;
18286;SDS011;9269;50.838;12.094;2023-06-04T08:09:18;2.83;;;1.83;;
18286;SDS011;9269;50.838;12.094;2023-06-04T08:11:54;2.30;;;1.83;;
18286;SDS011;9269;50.838;12.094;2023-06-04T08:14:25;3.63;;;1.73;;
18286;SDS011;9269;50.838;12.094;2023-06-04T08:17:01;2.20;;;1.80;;
18286;SDS011;9269;50.838;12.094;2023-06-04T08:19:37;2.93;;;2.07;;
18286;SDS011;9269;50.838;12.094;2023-06-04T08:22:08;2.53;;;1.93;;
18286;SDS011;9269;50.838;12.094;2023-06-04T08:24:44;2.80;;;2.00;;
18286;SDS011;9269;50.838;12.094;2023-06-04T08:27:16;1.93;;;1.73;;
18286;SDS011;9269;50.838;12.094;2023-06-04T08:29:52;3.03;;;2.10;;
18286;SDS011;9269;50.838;12.094;2023-06-04T08:32:30;2.83;;;2.00;;
18286;SDS011;9269;50.838;12.094;2023-06-04T08:35:07;2.20;;;1.97;;
18286;SDS011;9269;50.838;12.094;2023-06-04T08:37:39;2.67;;;2.00;;
18286;SDS011;9269;50.838;12.094;2023-06-04T08:40:16;3.43;;;2.23;;
18286;SDS011;9269;50.838;12.094;2023-06-04T08:42:56;3.83;;;2.00;;
18286;SDS011;9269;50.838;12.094;2023-06-04T08:45:33;2.37;;;2.00;;
18286;SDS011;9269;50.838;12.094;2023-06-04T08:48:14;2.63;;;2.00;;
18286;SDS011;9269;50.838;12.094;2023-06-04T08:50:50;3.37;;;2.20;;
18286;SDS011;9269;50.838;12.094;2023-06-04T08:53:30;3.17;;;1.80;;
18286;SDS011;9269;50.838;12.094;2023-06-04T08:56:04;3.03;;;2.10;;
18286;SDS011;9269;50.838;12.094;2023-06-04T08:58:38;2.47;;;1.83;;
18286;SDS011;9269;50.838;12.094;2023-06-04T09:01:17;2.07;;;1.90;;
18286;SDS011;9269;50.838;12.094;2023-06-04T09:03:52;2.47;;;2.03;;
18286;SDS011;9269;50.838;12.094;2023-06-04T09:06:31;3.43;;;2.10;;
18286;SDS011;9269;50.838;12.094;2023-06-04T09:09:08;1.70;;;1.60;;
18286;SDS011;9269;50.838;12.094;2023-06-04T09:11:49;2.87;;;1.80;;
18286;SDS011;9269;50.838;12.094;2023-06-04T09:14:31;2.87;;;1.70;;
18286;SDS011;9269;50.838;12.094;2023-06-04T09:17:06;4.30;;;2.03;;
18286;SDS011;9269;50.838;12.094;2023-06-04T09:19:43;1.90;;;1.70;;
18286;SDS011;9269;50.838;12.094;2023-06-04T09:22:14;3.50;;;2.07;;
18286;SDS011;9269;50.838;12.094;2023-06-04T09:24:44;5.20;;;2.30;;
18286;SDS011;9269;50.838;12.094;2023-06-04T09:27:22;1.83;;;1.70;;
18286;SDS011;9269;50.838;12.094;2023-06-04T09:30:00;3.00;;;2.07;;
18286;SDS011;9269;50.838;12.094;2023-06-04T09:32:37;3.33;;;2.00;;
18286;SDS011;9269;50.838;12.094;2023-06-04T09:35:11;1.80;;;1.70;;
18286;SDS011;9269;50.838;12.094;2023-06-04T09:37:52;2.93;;;1.57;;
18286;SDS011;9269;50.838;12.094;2023-06-04T09:40:34;3.70;;;2.10;;
18286;SDS011;9269;50.838;12.094;2023-06-04T09:43:20;2.03;;;1.83;;
18286;SDS011;9269;50.838;12.094;2023-06-04T09:46:09;2.40;;;1.70;;
18286;SDS011;9269;50.838;12.094;2023-06-04T09:48:45;2.23;;;1.77;;
18286;SDS011;9269;50.838;12.094;2023-06-04T09:51:19;2.67;;;1.73;;
18286;SDS011;9269;50.838;12.094;2023-06-04T09:54:04;2.03;;;1.73;;
18286;SDS011;9269;50.838;12.094;2023-06-04T09:56:48;2.37;;;2.03;;
18286;SDS011;9269;50.838;12.094;2023-06-04T09:59:36;2.50;;;1.57;;
18286;SDS011;9269;50.838;12.094;2023-06-04T10:02:13;1.93;;;1.60;;
18286;SDS011;9269;50.838;12.094;2023-06-04T10:04:55;1.77;;;1.67;;
18286;SDS011;9269;50.838;12.094;2023-06-04T10:07:33;1.60;;;1.50;;
18286;SDS011;9269;50.838;12.094;2023-06-04T10:10:17;2.63;;;1.60;;
18286;SDS011;9269;50.838;12.094;2023-06-04T10:13:03;1.83;;;1.40;;
18286;SDS011;9269;50.838;12.094;2023-06-04T10:15:39;2.23;;;1.70;;
18286;SDS011;9269;50.838;12.094;2023-06-04T10:18:11;2.37;;;1.70;;
18286;SDS011;9269;50.838;12.094;2023-06-04T10:20:52;2.23;;;1.70;;
18286;SDS011;9269;50.838;12.094;2023-06-04T10:23:35;1.67;;;1.57;;
18286;SDS011;9269;50.838;12.094;2023-06-04T10:26:14;1.90;;;1.70;;
18286;SDS011;9269;50.838;12.094;2023-06-04T10:28:49;2.07;;;1.50;;
18286;SDS011;9269;50.838;12.094;2023-06-04T10:31:22;1.97;;;1.87;;
18286;SDS011;9269;50.838;12.094;2023-06-04T10:34:00;2.10;;;1.90;;
18286;SDS011;9269;50.838;12.094;2023-06-04T10:36:42;2.43;;;1.40;;
18286;SDS011;9269;50.838;12.094;2023-06-04T10:39:24;2.03;;;1.60;;
18286;SDS011;9269;50.838;12.094;2023-06-04T10:42:07;1.40;;;1.30;;
18286;SDS011;9269;50.838;12.094;2023-06-04T10:44:43;3.03;;;1.80;;
18286;SDS011;9269;50.838;12.094;2023-06-04T10:47:18;3.70;;;1.50;;
18286;SDS011;9269;50.838;12.094;2023-06-04T10:49:52;3.07;;;1.67;;
18286;SDS011;9269;50.838;12.094;2023-06-04T10:52:23;1.47;;;1.30;;
18286;SDS011;9269;50.838;12.094;2023-06-04T10:55:03;1.87;;;1.53;;
18286;SDS011;9269;50.838;12.094;2023-06-04T10:57:40;2.97;;;1.70;;
18286;SDS011;9269;50.838;12.094;2023-06-04T11:00:34;3.13;;;1.67;;
18286;SDS011;9269;50.838;12.094;2023-06-04T11:03:04;1.60;;;1.47;;
18286;SDS011;9269;50.838;12.094;2023-06-04T11:05:45;1.87;;;1.60;;
18286;SDS011;9269;50.838;12.094;2023-06-04T11:08:26;1.80;;;1.40;;
18286;SDS011;9269;50.838;12.094;2023-06-04T11:11:09;1.73;;;1.63;;
18286;SDS011;9269;50.838;12.094;2023-06-04T11:13:46;1.60;;;1.50;;
18286;SDS011;9269;50.838;12.094;2023-06-04T11:16:23;2.07;;;1.30;;
18286;SDS011;9269;50.838;12.094;2023-06-04T11:18:59;1.80;;;1.70;;
18286;SDS011;9269;50.838;12.094;2023-06-04T11:21:33;4.63;;;1.80;;
18286;SDS011;9269;50.838;12.094;2023-06-04T11:24:06;2.57;;;1.50;;
18286;SDS011;9269;50.838;12.094;2023-06-04T11:26:54;2.27;;;1.60;;
18286;SDS011;9269;50.838;12.094;2023-06-04T11:29:43;2.20;;;1.60;;
18286;SDS011;9269;50.838;12.094;2023-06-04T11:32:28;1.57;;;1.47;;
18286;SDS011;9269;50.838;12.094;2023-06-04T11:35:03;3.47;;;1.67;;
18286;SDS011;9269;50.838;12.094;2023-06-04T11:37:34;1.70;;;1.60;;
18286;SDS011;9269;50.838;12.094;2023-06-04T11:40:16;1.80;;;1.70;;
18286;SDS011;9269;50.838;12.094;2023-06-04T11:42:50;1.70;;;1.60;;
18286;SDS011;9269;50.838;12.094;2023-06-04T11:45:39;1.77;;;1.60;;
18286;SDS011;9269;50.838;12.094;2023-06-04T11:48:14;2.23;;;1.70;;
18286;SDS011;9269;50.838;12.094;2023-06-04T11:50:48;1.83;;;1.40;;
18286;SDS011;9269;50.838;12.094;2023-06-04T11:53:19;2.70;;;1.47;;
18286;SDS011;9269;50.838;12.094;2023-06-04T11:55:52;2.40;;;1.50;;
18286;SDS011;9269;50.838;12.094;2023-06-04T11:58:36;2.10;;;1.70;;
18286;SDS011;9269;50.838;12.094;2023-06-04T12:01:08;2.97;;;1.70;;
18286;SDS011;9269;50.838;12.094;2023-06-04T12:03:38;2.37;;;1.50;;
18286;SDS011;9269;50.838;12.094;2023-06-04T12:06:16;1.93;;;1.50;;
18286;SDS011;9269;50.838;12.094;2023-06-04T12:08:48;3.33;;;1.57;;
18286;SDS011;9269;50.838;12.094;2023-06-04T12:11:25;2.03;;;1.60;;
18286;SDS011;9269;50.838;12.094;2023-06-04T12:14:05;1.73;;;1.40;;
18286;SDS011;9269;50.838;12.094;2023-06-04T12:16:40;2.87;;;1.50;;
18286;SDS011;9269;50.838;12.094;2023-06-04T12:19:18;2.00;;;1.77;;
18286;SDS011;9269;50.838;12.094;2023-06-04T12:22:00;1.97;;;1.70;;
18286;SDS011;9269;50.838;12.094;2023-06-04T12:24:46;2.67;;;1.70;;
18286;SDS011;9269;50.838;12.094;2023-06-04T12:27:24;2.77;;;1.90;;
18286;SDS011;9269;50.838;12.094;2023-06-04T12:32:35;2.63;;;1.63;;
18286;SDS011;9269;50.838;12.094;2023-06-04T12:35:06;1.40;;;1.30;;
18286;SDS011;9269;50.838;12.094;2023-06-04T12:37:45;2.43;;;1.70;;
18286;SDS011;9269;50.838;12.094;2023-06-04T12:40:25;1.43;;;1.33;;
18286;SDS011;9269;50.838;12.094;2023-06-04T12:43:05;2.13;;;1.70;;
18286;SDS011;9269;50.838;12.094;2023-06-04T12:45:42;1.80;;;1.70;;
18286;SDS011;9269;50.838;12.094;2023-06-04T12:48:26;2.33;;;1.70;;
18286;SDS011;9269;50.838;12.094;2023-06-04T12:51:08;2.30;;;1.50;;
18286;SDS011;9269;50.838;12.094;2023-06-04T12:53:49;2.03;;;1.53;;
18286;SDS011;9269;50.838;12.094;2023-06-04T12:56:25;1.80;;;1.60;;
18286;SDS011;9269;50.838;12.094;2023-06-04T12:59:07;1.63;;;1.53;;
18286;SDS011;9269;50.838;12.094;2023-06-04T13:01:46;3.40;;;1.43;;
18286;SDS011;9269;50.838;12.094;2023-06-04T13:04:19;1.70;;;1.60;;
18286;SDS011;9269;50.838;12.094;2023-06-04T13:06:58;1.57;;;1.47;;
18286;SDS011;9269;50.838;12.094;2023-06-04T13:09:28;1.80;;;1.70;;
18286;SDS011;9269;50.838;12.094;2023-06-04T13:12:03;2.50;;;1.50;;
18286;SDS011;9269;50.838;12.094;2023-06-04T13:14:42;2.80;;;1.60;;
18286;SDS011;9269;50.838;12.094;2023-06-04T13:17:13;2.60;;;1.83;;
18286;SDS011;9269;50.838;12.094;2023-06-04T13:19:56;1.80;;;1.70;;
18286;SDS011;9269;50.838;12.094;2023-06-04T13:22:29;2.03;;;1.80;;
18286;SDS011;9269;50.838;12.094;2023-06-04T13:25:05;1.70;;;1.40;;
18286;SDS011;9269;50.838;12.094;2023-06-04T13:27:34;1.70;;;1.60;;
18286;SDS011;9269;50.838;12.094;2023-06-04T13:30:17;3.43;;;1.83;;
18286;SDS011;9269;50.838;12.094;2023-06-04T13:32:53;3.00;;;1.90;;
18286;SDS011;9269;50.838;12.094;2023-06-04T13:35:36;1.87;;;1.40;;
18286;SDS011;9269;50.838;12.094;2023-06-04T13:38:16;1.70;;;1.53;;
18286;SDS011;9269;50.838;12.094;2023-06-04T13:41:03;1.63;;;1.53;;
18286;SDS011;9269;50.838;12.094;2023-06-04T13:43:37;3.17;;;1.77;;
18286;SDS011;9269;50.838;12.094;2023-06-04T13:46:25;3.00;;;1.60;;
18286;SDS011;9269;50.838;12.094;2023-06-04T13:49:04;4.67;;;1.70;;
18286;SDS011;9269;50.838;12.094;2023-06-04T13:51:38;1.70;;;1.60;;
18286;SDS011;9269;50.838;12.094;2023-06-04T13:54:16;2.20;;;1.50;;
18286;SDS011;9269;50.838;12.094;2023-06-04T13:56:52;1.70;;;1.60;;
18286;SDS011;9269;50.838;12.094;2023-06-04T13:59:31;2.00;;;1.57;;
18286;SDS011;9269;50.838;12.094;2023-06-04T14:02:06;2.00;;;1.53;;
18286;SDS011;9269;50.838;12.094;2023-06-04T14:04:43;2.87;;;1.50;;
18286;SDS011;9269;50.838;12.094;2023-06-04T14:07:25;1.93;;;1.70;;
18286;SDS011;9269;50.838;12.094;2023-06-04T14:10:01;2.27;;;1.53;;
18286;SDS011;9269;50.838;12.094;2023-06-04T14:12:38;1.50;;;1.40;;
18286;SDS011;9269;50.838;12.094;2023-06-04T14:15:16;3.07;;;1.80;;
18286;SDS011;9269;50.838;12.094;2023-06-04T14:17:52;3.43;;;1.90;;
18286;SDS011;9269;50.838;12.094;2023-06-04T14:20:35;1.97;;;1.83;;
18286;SDS011;9269;50.838;12.094;2023-06-04T14:23:10;1.80;;;1.43;;
18286;SDS011;9269;50.838;12.094;2023-06-04T14:25:55;1.63;;;1.43;;
18286;SDS011;9269;50.838;12.094;2023-06-04T14:28:40;1.63;;;1.53;;
18286;SDS011;9269;50.838;12.094;2023-06-04T14:31:23;2.57;;;2.03;;
18286;SDS011;9269;50.838;12.094;2023-06-04T14:34:08;1.53;;;1.43;;
18286;SDS011;9269;50.838;12.094;2023-06-04T14:36:50;1.87;;;1.77;;
18286;SDS011;9269;50.838;12.094;2023-06-04T14:39:32;2.10;;;1.63;;
18286;SDS011;9269;50.838;12.094;2023-06-04T14:42:15;2.00;;;1.50;;
18286;SDS011;9269;50.838;12.094;2023-06-04T14:44:59;1.97;;;1.63;;
18286;SDS011;9269;50.838;12.094;2023-06-04T14:47:38;1.90;;;1.63;;
18286;SDS011;9269;50.838;12.094;2023-06-04T14:50:21;1.60;;;1.50;;
18286;SDS011;9269;50.838;12.094;2023-06-04T14:52:54;1.37;;;1.13;;
18286;SDS011;9269;50.838;12.094;2023-06-04T14:55:35;1.63;;;1.30;;
18286;SDS011;9269;50.838;12.094;2023-06-04T14:58:16;1.67;;;1.57;;
18286;SDS011;9269;50.838;12.094;2023-06-04T15:00:55;1.60;;;1.50;;
18286;SDS011;9269;50.838;12.094;2023-06-04T15:03:28;1.97;;;1.60;;
18286;SDS011;9269;50.838;12.094;2023-06-04T15:06:07;1.63;;;1.43;;
18286;SDS011;9269;50.838;12.094;2023-06-04T15:08:49;3.03;;;2.00;;
18286;SDS011;9269;50.838;12.094;2023-06-04T15:11:35;2.37;;;1.70;;
18286;SDS011;9269;50.838;12.094;2023-06-04T15:14:14;2.03;;;1.70;;
18286;SDS011;9269;50.838;12.094;2023-06-04T15:16:55;2.20;;;1.60;;
18286;SDS011;9269;50.838;12.094;2023-06-04T15:19:31;1.97;;;1.60;;
18286;SDS011;9269;50.838;12.094;2023-06-04T15:22:08;1.80;;;1.63;;
18286;SDS011;9269;50.838;12.094;2023-06-04T15:24:45;3.30;;;1.50;;
18286;SDS011;9269;50.838;12.094;2023-06-04T15:27:26;2.20;;;1.50;;
18286;SDS011;9269;50.838;12.094;2023-06-04T15:30:03;2.47;;;1.77;;
18286;SDS011;9269;50.838;12.094;2023-06-04T15:32:44;1.70;;;1.60;;
18286;SDS011;9269;50.838;12.094;2023-06-04T15:35:32;1.97;;;1.47;;
18286;SDS011;9269;50.838;12.094;2023-06-04T15:38:12;2.27;;;1.60;;
18286;SDS011;9269;50.838;12.094;2023-06-04T15:40:52;1.83;;;1.47;;
18286;SDS011;9269;50.838;12.094;2023-06-04T15:43:29;1.77;;;1.50;;
18286;SDS011;9269;50.838;12.094;2023-06-04T15:46:07;3.70;;;1.80;;